Pour une meilleure expérience, merci d'orienter votre écran en mode paysage.

rotate

Club de Triathlon : COTE D OPALE TRIATHLON CALAIS SAINT OMER

Le club de Triathlon COTE D OPALE TRIATHLON CALAIS SAINT OMER se situe dans la ville de SAINT OMER (62 - Pas-de-Calais). Le club est affilié à la ligue régionale HAUTS DE FRANCE de la FFTRI - Fédération Française de Triathlon. Retrouvez ici toute l'activité du club de Triathlon COTE D OPALE TRIATHLON CALAIS SAINT OMER - Résultats, podiums, objectifs, effectifs....

Site internet : https://www.cotriathlon.fr

Résultats de la saison en cours

CltClt FDateEpreuveNomIPRNbTempsGAClt/GAIP
13 16/10/2022Duathlon de Douai (59) - S Léo DACQUIN0521h05'33''MC1479Sa course
6 16/10/2022Duathlon de Douai (59) - S Chad HIDOT DELATTRE0521h03'09''MC11103Sa course
283 01/10/2022BayMan (50) - Triathlon L Edouard DALLE666345h39'09''MS35354Sa course
70 25/09/2022Duathlon d'Ardres (62) - M Guillaume FRERE03281h32'10''MSE5180Sa course
149 25/09/2022Duathlon d'Ardres (62) - M Jean francois REBENA443281h41'33''MVE5555Sa course
12 25/09/2022Duathlon d'Ardres (62) - M Emmanuel RENARD2153281h22'21''MVE3103Sa course
83 25/09/2022Duathlon d'Ardres (62) - M Julien VANDOMME03281h33'18''MVE2476Sa course
87 25/09/2022Duathlon d'Ardres (62) - M Sébastien GONGORA03281h33'59''MVE2674Sa course
2 25/09/2022Duathlon d'Ardres (62) - M Louis NOEL03281h20'19''MSE2273Sa course
112 25/09/2022Duathlon d'Ardres (62) - M Jean stephane STERIN633281h37'14''MVE3366Sa course
34 25/09/2022Duathlon d'Ardres (62) - M Maxence JOETS03281h27'11''MSE2592Sa course
67 24/09/2022Triathlon Sud Vendée (85) - L Grégory CANDELLE1013854h32'28''MV2983Sa course
2 11/09/2022Triathlon d'Etaples sur Mer (62) - M Emmanuel RENARD2152172h03'52''MVE1227Sa course
17 10/09/2022Duathlon d'Arques (62) - S Maxence JOETS01071h01'01''MS2488Sa course
70 10/09/2022Duathlon d'Arques (62) - S Guillaume BERTOUX01071h14'37''MS4636Sa course
32 10/09/2022Duathlon d'Arques (62) - S Sébastien GONGORA01071h05'52''M MA472Sa course
1 04/09/2022Triathlon de Gravelines (59) - M Emmanuel RENARD2152992h01'48''MVE1289Sa course
19 04/09/2022Triathlon de Gravelines (59) - XS Léo DACQUIN017836'51''MC1293Sa course
45 04/09/2022Triathlon de Gravelines (59) - M Karl MACHIN02992h21'19''MSE2487Sa course
116 04/09/2022Triathlon de Gravelines (59) - M Rémy DACQUIN02992h35'04''MVE4761Sa course
6 03/09/2022Triathlon des Cadets de Gascogne (47) - M Grégory CANDELLE1011582h14'18''MVE4130Sa course
46 28/08/2022EDF VercorsMan (26) - Triathlon S Léo DACQUIN03221h27'53''MCA688Sa course
7 28/08/2022EDF VercorsMan (26) - Triathlon S Chad HIDOT DELATTRE03221h14'38''MCA1149Sa course
7 27/08/2022EDF VercorsMan (26) - Triathlon XL Raphael LEROY1482546h14'49''MS22138Sa course
95 27/08/2022EDF VercorsMan (26) - Triathlon XL Jean stephane STERIN632547h57'04''MV3863Sa course
2472927/08/2022EDF VercorsMan (26) - Triathlon XL Beatrice ANDRÉ025412h05'48''FV340Sa course
64 27/08/2022EDF VercorsMan (26) - Triathlon XL Cyril CHAMBELLAND02547h26'11''MV2676Sa course
23 27/08/2022EDF VercorsMan (26) - Triathlon XL Benjamin DEWEINE982546h51'33''MS2594Sa course
2 27/08/2022EDF VercorsMan (26) - Triathlon XL Marc FERNANDES2082545h51'12''MS21243Sa course
24 27/08/2022EDF VercorsMan (26) - Triathlon XL Florent FRANCOIS02546h51'47''MS3994Sa course
160 27/08/2022EDF VercorsMan (26) - Triathlon XL Christophe HOSTYN652548h44'25''MV21736Sa course
184 27/08/2022EDF VercorsMan (26) - Triathlon XL Fabien SEYNAVE422549h04'51''MV12326Sa course
147 27/08/2022EDF VercorsMan (26) - Triathlon XL Julien VANDOMME02548h33'57''MV11541Sa course
91 27/08/2022EDF VercorsMan (26) - Triathlon XL Edouard DALLE662547h55'00''MS32364Sa course
1 31/07/2022Triathlon de Villeneuve sur Lot (47) - M Marc FERNANDES208812h00'09''MSE1171Sa course
6 31/07/2022Triathlon de Villeneuve sur Lot (47) - M Florent FRANCOIS0812h12'29''MSE6111Sa course
5 31/07/2022Triathlon de Villeneuve sur Lot (47) - M Benjamin DEWEINE98812h11'00''MSE5120Sa course
5 24/07/2022Triathlon du Val de Gray (70) - M Emmanuel RENARD2151372h04'54''MVE1137Sa course
3 14/07/2022Triathlon du Haut Languedoc (34) - Championnat de France de Triathlon L Marc FERNANDES2082674h12'54''MS22209Sa course
116 04/07/2022Ch'TriMan 226 Gravelines (59) - Triathlon XXL Fabien SEYNAVE4221212h06'19''MVE5641Sa course
DNF 03/07/2022Ch'TriMan 113 Gravelines (59) - Triathlon L Rémy DACQUIN0889MVE Sa course
92 03/07/2022Ch'TriMan Gravelines (59) - SwimBike L Alain DUFOUR01533h45'56''M MA 4841Sa course
14 03/07/2022Ch'TriMan 111 Gravelines (59) - Duathlon L Léo BULTEL01284h00'44''MSE1393Sa course
559 03/07/2022Ch'TriMan 113 Gravelines (59) - Triathlon L Loic HEDEN08896h03'10''MVE22335Sa course
294 03/07/2022Ch'TriMan 113 Gravelines (59) - Triathlon L Julien VANDOMME08895h29'06''MVE10466Sa course
63 03/07/2022Ch'TriMan 113 Gravelines (59) - Triathlon L Benjamin DEWEINE988894h42'39''MSE5195Sa course
7939203/07/2022Ch'TriMan 113 Gravelines (59) - Triathlon L Delphine MARQUANT08896h59'59''FVE347Sa course
47 03/07/2022Ch'TriMan Gravelines (59) - SwimBike L Guillaume FRERE01533h21'32''MS4 371Sa course
2 03/07/2022Ch'TriMan 111 Gravelines (59) - Duathlon L Raphael LEROY1481283h34'48''MSE2184Sa course
72 03/07/2022Ch'TriMan 111 Gravelines (59) - Duathlon L Benoît MOITEL01284h58'32''MSE4542Sa course
15 02/07/2022Ch'TriMan Gravelines (59) - Triathlon S Karl MACHIN06081h06'20''MSE9105Sa course
6 02/07/2022Ch'TriMan Gravelines (59) - Triathlon S Chad HIDOT DELATTRE06081h01'35''MCA3199Sa course
137 02/07/2022Ch'TriMan Gravelines (59) - Triathlon S Guillaume GODART06081h20'28''MVE2978Sa course
DNF 02/07/2022Ch'TriMan Gravelines (59) - Triathlon S Christophe HOSTYN65608MVE Sa course
46 02/07/2022Ch'TriMan Gravelines (59) - Triathlon S Etienne DEBARRE06081h13'24''MVE795Sa course
22 02/07/2022Ch'TriMan Gravelines (59) - Triathlon S Léo DACQUIN06081h08'27''MCA7102Sa course
110 02/07/2022Ch'TriMan Gravelines (59) - Triathlon S Pierre THIEULEUX06081h18'45''MVE2383Sa course
8 02/07/2022Ch'TriMan Gravelines (59) - Triathlon S Louis NOEL06081h02'12''MSE4166Sa course
4 19/06/2022Tri'Thur - Triathlon de Kruth (68) - S Louis NOEL01351h05'29''MS2 1151Sa course
705 19/06/2022Triathlon de Deauville (14) - M Loic HEDEN014113h06'26''MV26650Sa course
3 12/06/2022Weppes SwimRun (62) - M Emmanuel LOUCHAERT0184h22'51''MV1 1101Sa course
40 11/06/2022Triathlon des Moines (59) - S Benjamin DEWEINE982441h05'42''MS2786Sa course
69 11/06/2022Triathlon des Moines (59) - S Léo DACQUIN02441h10'31''MC11173Sa course
39 11/06/2022Triathlon de Saint Malo (35) - S Thomas BAYART03431h18'19''MS2991Sa course
1242311/06/2022Triathlon des Moines (59) - S Louise LECONTE02441h17'59''FJ1250Sa course
24 11/06/2022Triathlon des Moines (59) - S Chad HIDOT DELATTRE02441h02'56''MC1594Sa course
22 11/06/2022Triathlon des Moines (59) - S Cyril CHAMBELLAND02441h02'38''M MA195Sa course
169 05/06/2022Triathlon d'Obernai - Benfeld (67) - L Jean francois REBENA442995h53'52''MV4941Sa course
37 05/06/2022Triathlon de Mimizan (40) - M Grégory CANDELLE1015062h15'44''MVE1296Sa course
75 26/05/2022Triathlon de Flandre Intérieure (59) - M Fabien SEYNAVE421872h39'31''MV11059Sa course
62 26/05/2022FrenchMan Triathlon - Carcans (33) - M Grégory CANDELLE1018162h07'00''MV2395Sa course
86 26/05/2022Triathlon de Flandre Intérieure (59) - M Jean francois REBENA441872h42'35''MV4153Sa course
74 26/05/2022Triathlon de Flandre Intérieure (59) - M Jean stephane STERIN631872h39'03''MV3660Sa course
47 26/05/2022Triathlon de Flandre Intérieure (59) - M Christophe HOSTYN651872h31'22''MV2376Sa course
104 26/05/2022Triathlon de Flandre Intérieure (59) - M Laurent MOUQUET01872h47'52''MV31243Sa course
8 26/05/2022Triathlon de Flandre Intérieure (59) - M Emmanuel LOUCHAERT01872h15'35''MV12120Sa course
4 22/05/2022Duathlon du Pays de Brive (19) - Championnat de France de Duathlon Longue Distance Raphael LEROY1481233h06'57''MS23142Sa course
2 22/05/2022Duathlon du Pays de Brive (19) - Championnat de France de Duathlon Longue Distance Marc FERNANDES2081233h03'30''MS21178Sa course
DNF 22/05/2022Duathlon du Pays de Brive (19) - Championnat de France de Duathlon Longue Distance Grégory CANDELLE101123MV2 Sa course
55422/05/2022Duathlon du Pays de Brive (19) - Championnat de France de Duathlon Longue Distance Capucine ROLIN01233h49'30''FJU152Sa course
DSQ 22/05/2022Triathlon du Chemin des Dames (02) - M Cyril CHAMBELLAND0588MVE Sa course
30 22/05/2022Triathlon du Chemin des Dames (02) - S Karl MACHIN04441h07'46''MS1597Sa course
16 22/05/2022Duathlon du Pays de Brive (19) - Championnat de France de Duathlon Longue Distance Florent FRANCOIS01233h16'28''MS3689Sa course
44 22/05/2022Duathlon du Pays de Brive (19) - Championnat de France de Duathlon Longue Distance Benjamin DEWEINE981233h39'32''MS21162Sa course
DSQ 22/05/2022Triathlon du Chemin des Dames (02) - M Jean francois REBENA44588MVE Sa course
44 22/05/2022Triathlon du Chemin des Dames (02) - S Thomas BAYART04441h10'40''MS2593Sa course
5 15/05/2022ValtriMan (59) - Triathlon M Raphael LEROY1484132h25'15''MS22197Sa course
103 15/05/2022ValtriMan (59) - Triathlon M Christophe HOSTYN654133h00'22''MV2875Sa course
27 14/05/2022ValtriMan (59) - Triathlon S Christophe HOSTYN652091h27'45''MV2390Sa course
941823/04/2022Duathlon de Noyon (60) - S Louise LECONTE01281h09'10''FJU318Sa course
68 23/04/2022Duathlon de Noyon (60) - S Chad HIDOT DELATTRE012859'19''MCA1141Sa course
DNF 23/04/2022Duathlon de Noyon (60) - S Léo DACQUIN0128MCA Sa course
1741803/04/2022Duathlon de Parthenay (79) - S Capucine ROLIN02981h04'59''FD11839Sa course
DNF 03/04/2022Duathlon de Parthenay (79) - S Marc FERNANDES208298MD1 Sa course
4 03/04/2022Duathlon de Cozes (17) - M Grégory CANDELLE101591h37'34''MVE2120Sa course
110 20/03/2022Duathlon de Taisnières-sur-Hon (59) - S Léo DACQUIN02701h06'42''MCA2959Sa course
45 20/03/2022Duathlon de Saintes (17) - S Grégory CANDELLE10126459'48''MVE684Sa course
115120/03/2022Duathlon de Taisnières-sur-Hon (59) - S Capucine ROLIN02701h06'52''FJU157Sa course
1752820/03/2022Duathlon de Taisnières-sur-Hon (59) - S Louise LECONTE02701h12'59''FJU1033Sa course
73 20/03/2022Duathlon de Taisnières-sur-Hon (59) - S Chad HIDOT DELATTRE02701h03'07''MCA1773Sa course
51 06/03/2022Duathlon de Périgueux (24) - S Grégory CANDELLE10126854'00''MVE683Sa course
17 27/02/2022Duathlon de Villefagnan (16) - S Grégory CANDELLE101971h06'17''MVE286Sa course
Pas de résultats pour ce club

Résultats des TRI-CUP de la saison

Résultats du tri-cup-l

AnnéeCltClt/F TCNomIPRGAClt/GA
202216630 Marc FERNANDES208MS211
202238464 Raphael LEROY148MS219
2022225251 Benjamin DEWEINE98MS254

Résultats des TRI-CUP de la saison

Résultats du tri-cup-m

AnnéeCltClt/F TCNomIPRGAClt/GA
202227653 Emmanuel RENARD215MV13
2022138321 Grégory CANDELLE101MV28

Résultats des TRI-CUP des saisons passées

Résultats du TRI-CUP LD

TRI-CUPAnnéeCltClt/F TCNomIPRGAClt/GA
TRI-CUP LD2019641171 Jean francois BELLET55MV2101
TRI-CUP LD201884381 Antoine SAISON90MS112
TRI-CUP LD2018181298 Vivien TETART0MS344
TRI-CUP LD2018427242 Gregory CUCHEVAL0MV178
TRI-CUP LD2018720174 Jean francois BELLET55MV2118
TRI-CUP LD201876048164 Sophie MEURET0FV22

Résultats du TRI-CUP M

TRI-CUPAnnéeCltClt/F TCNomIPRGAClt/GA
TRI-CUP M2021286201 Christophe HOSTYN75MV236
TRI-CUP M2019426253 Jean francois BELLET55MV252
TRI-CUP M2019530238 Simon SEDDIKI0MS291
TRI-CUP M2019671212 Christophe HOSTYN75MV1107
TRI-CUP M2019851182 Michael GRIGNON0MV1139
TRI-CUP M2018436233 Jean stephane STERIN67MV244
TRI-CUP M2018798150 Pierre THIEULEUX0MV1146
TRI-CUP M2018823144 Cyril MARTEL0MV2129

Résultats du TRI-CUP CROSS

TRI-CUPAnnéeCltClt/F TCNomIPRGAClt/GA
TRI-CUP CROSS20183465 Anthony FLINOIS0MS41
TRI-CUP CROSS201811198 Jean francois BELLET55MV22

Résultats du TRI-CUP DUA

TRI-CUPAnnéeCltClt/F TCNomIPRGAClt/GA
TRI-CUP DUA20193166 Jean francois BELLET55MV21
TRI-CUP DUA20194157 Frank MEURET0MV41
TRI-CUP DUA20183259 Laurent CANU0MV21
TRI-CUP DUA20185172 Jean francois BELLET55MV22

Podiums du club

Clt/GAGADateEpreuveNomIPRClt FCltNbTempsIP
1MC116/10/2022Duathlon de Douai (59) - SChad HIDOT DELATTRE06521h03'09''103RésultatsSa course
3MVE25/09/2022Duathlon d'Ardres (62) - MEmmanuel RENARD215123281h22'21''103RésultatsSa course
2MSE25/09/2022Duathlon d'Ardres (62) - MLouis NOEL023281h20'19''273RésultatsSa course
1MVE11/09/2022Triathlon d'Etaples sur Mer (62) - MEmmanuel RENARD21522172h03'52''227RésultatsSa course
1MVE04/09/2022Triathlon de Gravelines (59) - MEmmanuel RENARD21512992h01'48''289RésultatsSa course
2MC104/09/2022Triathlon de Gravelines (59) - XSLéo DACQUIN01917836'51''93RésultatsSa course
1MCA28/08/2022EDF VercorsMan (26) - Triathlon SChad HIDOT DELATTRE073221h14'38''149RésultatsSa course
2MS227/08/2022EDF VercorsMan (26) - Triathlon XLRaphael LEROY14872546h14'49''138RésultatsSa course
1MS227/08/2022EDF VercorsMan (26) - Triathlon XLMarc FERNANDES20822545h51'12''243RésultatsSa course
1MSE31/07/2022Triathlon de Villeneuve sur Lot (47) - MMarc FERNANDES2081812h00'09''171RésultatsSa course
1MVE24/07/2022Triathlon du Val de Gray (70) - MEmmanuel RENARD21551372h04'54''137RésultatsSa course
2MS214/07/2022Triathlon du Haut Languedoc (34) - Championnat de France de Triathlon LMarc FERNANDES20832674h12'54''209RésultatsSa course
3MS4 03/07/2022Ch'TriMan Gravelines (59) - SwimBike LGuillaume FRERE0471533h21'32''71RésultatsSa course
2MSE03/07/2022Ch'TriMan 111 Gravelines (59) - Duathlon LRaphael LEROY14821283h34'48''184RésultatsSa course
3MCA02/07/2022Ch'TriMan Gravelines (59) - Triathlon SChad HIDOT DELATTRE066081h01'35''199RésultatsSa course
1MS2 19/06/2022Tri'Thur - Triathlon de Kruth (68) - SLouis NOEL041351h05'29''151RésultatsSa course
1MV1 12/06/2022Weppes SwimRun (62) - MEmmanuel LOUCHAERT03184h22'51''101RésultatsSa course
2FJ111/06/2022Triathlon des Moines (59) - SLouise LECONTE0231242441h17'59''50RésultatsSa course
1M MA11/06/2022Triathlon des Moines (59) - SCyril CHAMBELLAND0222441h02'38''95RésultatsSa course
3MV226/05/2022Triathlon de Flandre Intérieure (59) - MChristophe HOSTYN65471872h31'22''76RésultatsSa course
2MV126/05/2022Triathlon de Flandre Intérieure (59) - MEmmanuel LOUCHAERT081872h15'35''120RésultatsSa course
3MV226/05/2022FrenchMan Triathlon - Carcans (33) - MGrégory CANDELLE101628162h07'00''95RésultatsSa course
1MV426/05/2022Triathlon de Flandre Intérieure (59) - MJean francois REBENA44861872h42'35''53RésultatsSa course
1FJU22/05/2022Duathlon du Pays de Brive (19) - Championnat de France de Duathlon Longue DistanceCapucine ROLIN04551233h49'30''52RésultatsSa course
3MS222/05/2022Duathlon du Pays de Brive (19) - Championnat de France de Duathlon Longue DistanceRaphael LEROY14841233h06'57''142RésultatsSa course
1MS222/05/2022Duathlon du Pays de Brive (19) - Championnat de France de Duathlon Longue DistanceMarc FERNANDES20821233h03'30''178RésultatsSa course
2MS215/05/2022ValtriMan (59) - Triathlon MRaphael LEROY14854132h25'15''197RésultatsSa course
3MV214/05/2022ValtriMan (59) - Triathlon SChristophe HOSTYN65272091h27'45''90RésultatsSa course
3FJU23/04/2022Duathlon de Noyon (60) - SLouise LECONTE018941281h09'10''18RésultatsSa course
2MVE03/04/2022Duathlon de Cozes (17) - MGrégory CANDELLE1014591h37'34''120RésultatsSa course
1FJU20/03/2022Duathlon de Taisnières-sur-Hon (59) - SCapucine ROLIN011152701h06'52''57RésultatsSa course
2MVE27/02/2022Duathlon de Villefagnan (16) - SGrégory CANDELLE10117971h06'17''86RésultatsSa course
2MV217/10/2021Duathlon de Douai (59) - LDavid THESSE0181892h35'48''94RésultatsSa course
1MVE26/09/2021Triathlon d'Ardres (62) - MEmmanuel RENARD21511711h19'33''230RésultatsSa course
1MVE26/09/2021Duathlon d'Ardres (62) - MChristophe MARQUANT02761h26'08''157RésultatsSa course
2MV219/09/2021FrenchMan de Libourne (33) - Triathlon MGrégory CANDELLE101152362h14'45''99RésultatsSa course
1MV112/09/2021Triathlon du Plan d'Eau du Canada (60) - MEmmanuel RENARD21542872h02'36''194RésultatsSa course
3MVE05/09/2021Triathlon de Gravelines (59) - MDavid THESSE083042h10'05''136RésultatsSa course
2MV105/09/2021Triathlon de l'Omois (02) - SEmmanuel LOUCHAERT0173141h14'10''100RésultatsSa course
1MV205/09/2021Triathlon de l'Omois (02) - SCyril CHAMBELLAND063141h10'30''159RésultatsSa course
3FSE04/07/2021Ch'TriMan 113 Gravelines (59) - Triathlon LDelphine HENNAERT031398794h59'03''84RésultatsSa course
1MV220/06/2021Tours'N Man (37) - Triathlon LCyril CHAMBELLAND0269394h12'36''103RésultatsSa course
3MVE12/06/2021Triathlon des Moines (59) - MChristophe MARION61172572h04'44''98RésultatsSa course
1MVE12/09/2020Duathlon d'Arques (62) - SDavid THESSE01022158'33''106RésultatsSa course
3FCA12/09/2020Duathlon d'Arques (62) - SCapucine ROLIN06692211h04'25''70RésultatsSa course
3MSE12/09/2020Duathlon d'Arques (62) - SFélix POUILLY261622157'58''142RésultatsSa course
1FSE12/09/2020Duathlon d'Arques (62) - SConstance MINET01312211h01'20''88RésultatsSa course
2FSE06/09/2020Triathlon de Gravelines (59) - MDelphine HENNAERT02674332h21'17''86RésultatsSa course
2MVE29/08/2020Triathlon des Moines (59) - MDavid THESSE0101922h02'48''104RésultatsSa course
1MVE29/09/2019Triathlon d'Ardres (62) - MCyril CHAMBELLAND031961h30'00''193RésultatsSa course
3MSE07/09/2019Duathlon d'Arques (62) - SDavid LECLERCQ0313257'30''169RésultatsSa course
1FSE01/09/2019Triathlon de Gravelines (59) - MDelphine HENNAERT02604112h20'54''87RésultatsSa course
1MVE01/09/2019Triathlon de Gravelines (59) - MChristophe MARQUANT084112h08'52''146RésultatsSa course
2MVE07/07/2019Duathlon d'Etaples sur Mer (62) - MChristophe MARQUANT04582h00'52''118RésultatsSa course
1MVE07/07/2019Triathlon d'Etaples sur Mer (62) - MEmmanuel LOUCHAERT052652h07'14''169RésultatsSa course
1MVE 11/05/2019Triathlon du Calaisis (62) - MEmmanuel LOUCHAERT073242h15'02''148RésultatsSa course
2FVE28/04/2019Duathlon Bresse Revermont (01) - SAna BELLET01180812h03'41''3RésultatsSa course
3MJU31/03/2019Duathlon de Paillencourt (59) - SJulien FERANDEAU104721456'22''131RésultatsSa course
2MJU31/03/2019Duathlon de Paillencourt (59) - SHugo WINOCK0321455'19''200RésultatsSa course
2MVE30/09/2018Duathlon d'Ardres (62) - MDavid THESSE031051h27'17''158RésultatsSa course
1FVE30/09/2018Duathlon d'Ardres (62) - MSophie MEURET01301051h43'14''74RésultatsSa course
2MPARA30/09/2018Triathlon d'Ardres (62) - MLouis NOEL02252362h32'31''3RésultatsSa course
3MVE30/09/2018Duathlon d'Ardres (62) - MChristophe MARQUANT051051h29'15''129RésultatsSa course
3MSE30/09/2018Triathlon d'Ardres (62) - MEmmanuel LOUCHAERT042361h29'52''180RésultatsSa course
1MSE23/09/2018Duathlon de Noyon (60) - SNicolas BAROUX017552'08''166RésultatsSa course
1MVE15/09/2018Duathlon d'Arques (62) - SDavid THESSE0213858'09''193RésultatsSa course
3MV109/09/2018Triathlon d'Auxonne (21) - MMathieu DANEL0161732h08'05''95RésultatsSa course
2MSE02/09/2018Triathlon de Gravelines (59) - MEmmanuel LOUCHAERT033222h03'24''238RésultatsSa course
1FV201/09/2018Triathlon de Gérardmer (88) - LSophie MEURET02951314926h08'17''64RésultatsSa course
1MS401/09/2018O'Xyrace (01) - Cross Triathlon MAnthony FLINOIS062642h00'27''147RésultatsSa course
2MSE26/08/2018Watrissart - Cross Triathlon de Jeumont (59) - MAnthony FLINOIS02401h53'49''131RésultatsSa course
2MV117/06/2018Triathlon du Plan d'Eau du Canada (60) - LCyril CHAMBELLAND053244h14'54''180RésultatsSa course
3FVE09/06/2018Triathlon des Moines (59) - MFrederique CHAMBELLAND04871542h30'13''43RésultatsSa course
2MSE03/06/2018Arromanches D Day (14) - Cross Triathlon MAnthony FLINOIS021331h55'23''187RésultatsSa course
3MS329/04/2018Duathlon de Douai (59) - LVivien TETART0152683h18'50''99RésultatsSa course
2MS129/04/2018Triathlon de Cannes (06) - LAntoine SAISON0149834h54'10''108RésultatsSa course
3MVE01/04/2018Duathlon de Paillencourt (59) - SCyril CHAMBELLAND01419056'33''97RésultatsSa course
1MVE24/09/2017Duathlon d'Ardres (62) - MDavid THESSE011061h31'36''190RésultatsSa course
1MVE24/09/2017Triathlon d'Ardres (62) - MCyril CHAMBELLAND022231h26'53''231RésultatsSa course
1FVE24/09/2017Duathlon d'Ardres (62) - MFrederique CHAMBELLAND01431061h49'51''61RésultatsSa course
3MSE24/09/2017Triathlon d'Ardres (62) - MEmmanuel LOUCHAERT042231h27'34''177RésultatsSa course
1MSE16/09/2017Cross Triathlon Berck sur Mer (62) - MAnthony FLINOIS012151h23'28''252RésultatsSa course
1MVE09/09/2017Duathlon d'Arques (62) - SDavid THESSE019758'59''185RésultatsSa course
1FJU09/09/2017Duathlon d'Arques (62) - SConstance MINET0118971h04'00''85RésultatsSa course
3MVE03/09/2017Triathlon de Gravelines (59) - MLaurent CANU0243522h23'52''97RésultatsSa course
1MVE03/09/2017Triathlon de Gravelines (59) - MDavid THESSE0113522h17'38''105RésultatsSa course
1FVE03/09/2017Triathlon de Gravelines (59) - MFrederique CHAMBELLAND081543522h45'02''56RésultatsSa course
2FV202/09/2017Triathlon de Gérardmer (88) - LSophie MEURET02458714436h20'56''56RésultatsSa course
2MS305/08/2017Triathlon de la Baie de Somme (80) - MAnthony FLINOIS0112732h04'41''103RésultatsSa course
2MV116/07/2017Triathlon du Val de Gray (70) - MCyril CHAMBELLAND0183332h10'10''99RésultatsSa course
1MS302/07/2017Duathlon de Verruyes (79) - LNicolas BAROUX01803h32'40''173RésultatsSa course
1MVE25/06/2017Triathlon de Deauville (14) - MDavid THESSE01913482h24'41''108RésultatsSa course
1MVE10/06/2017Triathlon des Moines (59) - MCyril CHAMBELLAND041101h58'10''141RésultatsSa course
3MSE10/06/2017Triathlon des Moines (59) - MEmmanuel LOUCHAERT031101h54'51''159RésultatsSa course
2MS304/06/2017VentouxMan (84) - Triathlon LAnthony FLINOIS078015h33'39''204RésultatsSa course
3MV104/06/2017VentouxMan (84) - Triathlon LCyril CHAMBELLAND0208015h53'06''104RésultatsSa course
3MSE28/05/2017Triathlon du Calaisis (62) - MLoic DELDICQUE031842h05'35''191RésultatsSa course
2MV125/09/2016Duathlon d'Ardres (62) - MCyril CHAMBELLAND061141h28'41''119RésultatsSa course
3MSE25/09/2016Triathlon d'Ardres (62) - MEmmanuel LOUCHAERT032321h27'56''205RésultatsSa course
1MSE25/09/2016Duathlon d'Ardres (62) - MNicolas BAROUX011141h23'15''190RésultatsSa course
1MV125/09/2016Duathlon d'Ardres (62) - MDavid THESSE041141h27'44''140RésultatsSa course
2MV225/09/2016Duathlon d'Ardres (62) - MLaurent CANU0201141h36'21''84RésultatsSa course
3MV225/09/2016Triathlon d'Ardres (62) - MJean stephane STERIN63442321h44'01''82RésultatsSa course
3MSE25/09/2016Duathlon d'Ardres (62) - MDavid LECLERCQ031141h27'11''158RésultatsSa course
1MV118/09/2016DuaLong Ile de France (77) - LDavid THESSE041083h51'23''141RésultatsSa course
3MVE10/09/2016Cross Triathlon Berck sur Mer (62) - MLaurent CANU0111231h34'50''96RésultatsSa course
2MSE04/09/2016Triathlon de Gravelines (59) - MEmmanuel LOUCHAERT042762h03'48''190RésultatsSa course
1MVE28/08/2016Watrissart - Cross Triathlon de Jeumont (59) - MCyril CHAMBELLAND03731h58'23''138RésultatsSa course
1MSE28/08/2016Watrissart - Cross Triathlon de Jeumont (59) - MAnthony FLINOIS01731h54'35''163RésultatsSa course
2MVE05/06/2016Triathlon de Deauville (14) - LCyril CHAMBELLAND077924h22'27''203RésultatsSa course
3MVE05/06/2016Triathlon de Deauville (14) - LDavid THESSE0117924h25'45''110RésultatsSa course
2MVE15/05/2016Triathlon du Calaisis (62) - MCyril CHAMBELLAND063032h04'46''155RésultatsSa course
2FVE15/05/2016Triathlon du Calaisis (62) - MFrederique CHAMBELLAND071753032h44'27''41RésultatsSa course
1MV124/04/2016Duathlon de Douai (59) - LDavid THESSE041473h21'44''155RésultatsSa course
1MSE04/10/2015Cross Duathlon du Haricot (59) - MCyril CHAMBELLAND013631h18'36''317RésultatsSa course
1MSE27/09/2015Duathlon d'Ardres (62) - MDavid THESSE011011h25'10''184RésultatsSa course
2MV227/09/2015Duathlon d'Ardres (62) - MLaurent CANU091011h33'46''101RésultatsSa course
1MSE19/09/2015Cross Triathlon Berck sur Mer (62) - MCyril CHAMBELLAND011701h22'41''229RésultatsSa course
3FVE14/06/2015Triathlon de Gravelines (59) - MFrederique CHAMBELLAND091862432h44'19''22RésultatsSa course
3ELM31/05/2015Duath'Long de Cambrai (59) - Championnat de France de Duathlon Longue DistanceCyril CHAMBELLAND071033h43'50''113RésultatsSa course
2MSE08/06/2014Ch'TriMan 113 de Cambrai (59)Cyril CHAMBELLAND032384h11'08''213RésultatsSa course
2MS227/04/2014Duathlon de Douai (59) - LNicolas BAROUX021923h42'38''219RésultatsSa course
2MV124/07/2013Triathlon de l'Alpe d'Huez (38) - LChristophe HALLEUMIEUX102137236h19'42''108RésultatsSa course
2MV116/06/2013Duath'Long de Cambrai (59) - Championnat de France de Duathlon Longue DistanceChristophe HALLEUMIEUX102181512h52'40''92RésultatsSa course
1MV116/06/2013Duath'Long de Cambrai (59) - Championnat de France de Duathlon Longue DistanceGrégory CANDELLE101171512h52'25''93RésultatsSa course
3MS422/04/2012Duathlon de Douai (59) - LCyril CHAMBELLAND081973h29'51''122RésultatsSa course
3MSE30/05/2010Triathlon du Lubéron (84) - LChristophe HALLEUMIEUX10232384h27'11''213RésultatsSa course
3MSE25/04/2010Duathlon de Douai (59) - LChristophe HALLEUMIEUX10232213h08'51''207RésultatsSa course
3MSE27/04/2008Duathlon de Douai (59) - LCyril CHAMBELLAND031663h10'03''185RésultatsSa course
3FS322/07/2007Duathlon de Fos - Val d'Aran (31) - LFrederique CHAMBELLAND071692316h02'06''28RésultatsSa course
3ELF30/04/2006Duath'Long de Cambrai (59) - Championnat de France de Duathlon Longue DistanceFrederique CHAMBELLAND03923233h52'35''55RésultatsSa course

Résultats aux championnats de France

DateNomIPRClt FCltNbTempsGAClt/GA
14/07/2022Marc FERNANDES20832524h12'54''MS22RésultatsSa course
22/05/2022Capucine ROLIN04531183h49'30''FJU1RésultatsSa course
22/05/2022Grégory CANDELLE101DNF11800'00''MV20RésultatsSa course
22/05/2022Marc FERNANDES20821183h03'30''MS21RésultatsSa course
22/05/2022Raphael LEROY14841183h06'57''MS23RésultatsSa course
22/05/2022Florent FRANCOIS0161183h16'28''MS36RésultatsSa course
22/05/2022Benjamin DEWEINE98431183h39'32''MS211RésultatsSa course
17/10/2021Laurent CANU0601642h52'36''MV35RésultatsSa course
17/10/2021Christophe MARION611541644h10'54''MV216RésultatsSa course
17/10/2021Frank MEURET01551644h10'54''MV49RésultatsSa course
17/10/2021Guillaume FRERE0DNF16400'00''MS40RésultatsSa course
17/10/2021David THESSE0161642h35'48''MV22RésultatsSa course
17/10/2021Grégory CANDELLE101381642h43'44''MV25RésultatsSa course
23/08/2020Cyril CHAMBELLAND0361571h48'14''MV17RésultatsSa course
23/08/2020Jean francois BELLET541011572h12'55''MV211RésultatsSa course
28/04/2019Jean francois BELLET541452114h03'17''MV218RésultatsSa course
28/04/2019Laurent CANU0942113h41'24''MV310RésultatsSa course
28/04/2019Frank MEURET01352113h57'55''MV44RésultatsSa course
13/04/2019Lucas MISEROLE1654220452'58''MS119RésultatsSa course
13/04/2019Laurent CANU011220459'56''MV35RésultatsSa course
13/04/2019Jean francois BELLET541372041h03'07''MV26RésultatsSa course
01/09/2018Anthony FLINOIS062002h00'27''MS41RésultatsSa course
01/09/2018Cyril CHAMBELLAND0132002h03'46''MV14RésultatsSa course
07/07/2018Rémy DACQUIN03876486h24'11''MS466RésultatsSa course
07/07/2018Gregory CUCHEVAL01616485h27'48''MV118RésultatsSa course
07/07/2018Antoine DELATTRE04566486h50'23''MV152RésultatsSa course
07/07/2018Ludovic MARQUANT01816485h33'47''MS429RésultatsSa course
07/07/2018Simon SEDDIKI04576486h50'24''MS242RésultatsSa course
07/07/2018Nordine DUCHATEAU02506485h50'09''MV128RésultatsSa course
07/07/2018Yannick PICAVET04796486h59'32''MV156RésultatsSa course
07/07/2018Sophie MEURET0362776485h55'14''FV24RésultatsSa course
07/07/2018Frederique CHAMBELLAND00DNF64800'00''FV10RésultatsSa course
07/07/2018Jean stephane STERIN633476486h14'16''MV247RésultatsSa course
07/07/2018Antoine SAISON0DNF64800'00''MS10RésultatsSa course
07/07/2018Gwenael HOCHART03736486h21'27''MS465RésultatsSa course
07/07/2018Anthony FLINOIS0386484h48'00''MS44RésultatsSa course
07/07/2018Aurelien VERWAERDE03856486h24'11''MS338RésultatsSa course
07/07/2018Cyril CHAMBELLAND0636484h56'05''MV110RésultatsSa course
07/07/2018Cyril MARTEL03866486h24'11''MV254RésultatsSa course
29/04/2018Nicolas BAROUX0DNF21200'00''MS30RésultatsSa course
29/04/2018David THESSE0DNF21200'00''MV10RésultatsSa course
29/04/2018Raphael TILLOY0DNF21200'00''MV20RésultatsSa course
29/04/2018Vivien TETART0142123h18'50''MS33RésultatsSa course
29/04/2018Laurent CANU0572123h39'13''MV27RésultatsSa course
29/04/2018Nordine DUCHATEAU0982123h55'32''MV114RésultatsSa course
29/04/2018Jean francois BELLET541252124h08'48''MV211RésultatsSa course
29/04/2018Rémy DACQUIN01272124h09'32''MS427RésultatsSa course
14/04/2018Cyril CHAMBELLAND0542361h00'21''MV15RésultatsSa course
02/07/2017Nicolas BAROUX01783h32'40''MS31RésultatsSa course
02/07/2017Grégory CANDELLE10117783h52'49''MV14RésultatsSa course
18/09/2016David THESSE04963h51'23''MV11RésultatsSa course
18/09/2016Cyril CHAMBELLAND018964h07'19''MV15RésultatsSa course
18/09/2016Grégory CANDELLE10120964h08'50''MV16RésultatsSa course
14/06/2015Rémy DACQUIN02864535h35'26''MS444RésultatsSa course
14/06/2015Jean stephane STERIN631944535h18'02''MV134RésultatsSa course
31/05/2015Cyril CHAMBELLAND061003h43'50''ELM3RésultatsSa course
06/07/2014Jean stephane STERIN632344575h24'52''MV123RésultatsSa course
06/07/2014Alain DUFOUR05214576h19'09''MV337RésultatsSa course
06/07/2014Laurent CANU02084575h20'25''MV220RésultatsSa course
19/05/2013Christophe HALLEUMIEUX102363944h42'06''MV16RésultatsSa course

Coureurs actuels du Club

Emmanuel RENARD
IPR : 215
Catégorie de niveau : Elite 2ème classe
Marc FERNANDES
IPR : 208
Catégorie de niveau : Elite 2ème classe
Raphael LEROY
IPR : 148
Catégorie de niveau : Elite 3ème classe
Grégory CANDELLE
IPR : 101
Catégorie de niveau : Elite 3ème classe
Benjamin DEWEINE
IPR : 98
Catégorie de niveau : 1ère catégorie
Edouard DALLE
IPR : 66
Catégorie de niveau : 3ème catégorie
Christophe HOSTYN
IPR : 65
Catégorie de niveau : 3ème catégorie
Jean stephane STERIN
IPR : 63
Catégorie de niveau : 3ème catégorie
Jean francois REBENA
IPR : 44
Catégorie de niveau : 4ème catégorie
Fabien SEYNAVE
IPR : 42
Catégorie de niveau : 4ème catégorie
Nordine DUCHATEAU
IPR : N/A
Catégorie de niveau : Non classé
Léo BULTEL
IPR : N/A
Catégorie de niveau : Non classé
Guillaume FRERE
IPR : N/A
Catégorie de niveau : Non classé
Pierre THIEULEUX
IPR : N/A
Catégorie de niveau : Non classé
Loic HEDEN
IPR : N/A
Catégorie de niveau : Non classé
Sébastien GONGORA
IPR : N/A
Catégorie de niveau : Non classé
Rémy DACQUIN
IPR : N/A
Catégorie de niveau : Non classé
Karl MACHIN
IPR : N/A
Catégorie de niveau : Non classé
Etienne DEBARRE
IPR : N/A
Catégorie de niveau : Non classé
Chad HIDOT DELATTRE
IPR : N/A
Catégorie de niveau : Non classé
Thomas BAYART
IPR : N/A
Catégorie de niveau : Non classé
Cyril CHAMBELLAND
IPR : N/A
Catégorie de niveau : Non classé
Léo DACQUIN
IPR : N/A
Catégorie de niveau : Non classé
Gaetan ESTER
IPR : N/A
Catégorie de niveau : Non classé
Maxence JOETS
IPR : N/A
Catégorie de niveau : Non classé
Aleis CADIX
IPR : N/A
Catégorie de niveau : Non classé
François GAY
IPR : N/A
Catégorie de niveau : Non classé
Guillaume GODART
IPR : N/A
Catégorie de niveau : Non classé
Guillaume BERTOUX
IPR : N/A
Catégorie de niveau : Non classé
Laurent MOUQUET
IPR : N/A
Catégorie de niveau : Non classé
Delphine MARQUANT
IPR : N/A
Catégorie de niveau : Non classée
Emmanuel LOUCHAERT
IPR : N/A
Catégorie de niveau : Non classé
Beatrice ANDRÉ
IPR : N/A
Catégorie de niveau : Non classée
Louis NOEL
IPR : N/A
Catégorie de niveau : Non classé
Alain DUFOUR
IPR : N/A
Catégorie de niveau : Non classé
Julien VANDOMME
IPR : N/A
Catégorie de niveau : Non classé
Benoît MOITEL
IPR : N/A
Catégorie de niveau : Non classé
Louise LECONTE
IPR : N/A
Catégorie de niveau : Non classée
Gregory DALIBON
IPR : N/A
Catégorie de niveau : Non classé
Florent FRANCOIS
IPR : N/A
Catégorie de niveau : Non classé
Capucine ROLIN
IPR : N/A
Catégorie de niveau : Non classée